Time;durP1;ratioP1;P1;durP2;ratioP2;P2;SDS_P1;SDS_P2;PMS_P1;PMS_P2;Temp;Humidity;BMP_temperature;BMP_pressure;BME280_temperature;BME280_humidity;BME280_pressure;Samples;Min_cycle;Max_cycle;Signal;HPM_P1;HPM_P2
2022/01/31 00:02:19;;;;;;;21.20;12.25;;;2.90;99.90;;;;;;5051642;28;20200;-86
2022/01/31 00:05:06;;;;;;;24.08;12.77;;;2.90;99.90;;;;;;5048186;28;20201;-88
2022/01/31 00:07:52;;;;;;;23.08;12.18;;;3.00;99.90;;;;;;5045760;28;20216;-87
2022/01/31 00:10:37;;;;;;;33.22;12.23;;;2.90;99.90;;;;;;5048365;28;20196;-87
2022/01/31 00:13:32;;;;;;;26.25;11.95;;;3.00;99.90;;;;;;5049621;28;20231;-87
2022/01/31 00:16:24;;;;;;;28.75;12.77;;;3.00;99.90;;;;;;5053239;28;20205;-88
2022/01/31 00:19:11;;;;;;;26.52;11.80;;;2.90;99.90;;;;;;5055909;28;20693;-88
2022/01/31 00:21:57;;;;;;;32.83;12.52;;;2.90;99.90;;;;;;5050255;28;20209;-87
2022/01/31 00:24:43;;;;;;;26.35;13.13;;;2.90;99.90;;;;;;5056553;28;20200;-87
2022/01/31 00:27:28;;;;;;;29.23;15.32;;;3.00;99.90;;;;;;5045994;28;20219;-88
2022/01/31 00:30:16;;;;;;;32.70;13.00;;;3.00;99.90;;;;;;5051242;28;20216;-87
2022/01/31 00:33:02;;;;;;;22.60;12.05;;;3.10;99.90;;;;;;5051740;28;20787;-88
2022/01/31 00:35:47;;;;;;;22.33;11.32;;;3.10;99.90;;;;;;5047108;28;20221;-87
2022/01/31 00:38:34;;;;;;;25.33;12.43;;;3.20;99.90;;;;;;5047922;28;20192;-87
2022/01/31 00:41:20;;;;;;;24.75;12.30;;;3.20;99.90;;;;;;5053024;28;20208;-87
2022/01/31 00:44:17;;;;;;;23.83;12.00;;;3.30;99.90;;;;;;5056893;28;20216;-87
2022/01/31 00:47:24;;;;;;;29.60;12.73;;;3.20;99.90;;;;;;5046103;28;20259;-86
2022/01/31 00:50:12;;;;;;;23.00;12.00;;;3.20;99.90;;;;;;5052049;28;20205;-87
2022/01/31 00:52:57;;;;;;;23.65;11.65;;;3.20;99.90;;;;;;5057866;28;20228;-87
2022/01/31 00:55:43;;;;;;;21.42;12.05;;;3.30;99.90;;;;;;5043947;28;20270;-86
2022/01/31 00:58:30;;;;;;;30.65;12.73;;;3.30;99.90;;;;;;5051384;28;20197;-88
2022/01/31 01:01:15;;;;;;;32.67;12.73;;;3.30;99.90;;;;;;5057515;28;20199;-87
2022/01/31 01:04:02;;;;;;;26.92;12.95;;;3.30;99.90;;;;;;5052941;28;20236;-87
2022/01/31 01:06:47;;;;;;;23.35;13.00;;;3.40;99.90;;;;;;5053024;28;20594;-87
2022/01/31 01:09:33;;;;;;;21.88;11.30;;;3.40;99.90;;;;;;5058696;28;20220;-88
2022/01/31 01:12:20;;;;;;;21.23;10.40;;;3.40;99.90;;;;;;5055280;28;20205;-88
2022/01/31 01:15:07;;;;;;;25.42;11.68;;;3.40;99.90;;;;;;5058052;28;20204;-87
2022/01/31 01:17:52;;;;;;;21.20;9.10;;;3.50;99.90;;;;;;5054253;28;20344;-87
2022/01/31 01:20:39;;;;;;;27.00;9.52;;;3.50;99.90;;;;;;5053820;28;20300;-88
2022/01/31 01:23:25;;;;;;;18.73;8.25;;;3.40;99.90;;;;;;5055084;28;20221;-88
2022/01/31 01:26:11;;;;;;;14.10;6.68;;;3.30;99.90;;;;;;5051023;28;20259;-87
2022/01/31 01:28:56;;;;;;;27.48;7.25;;;3.40;99.90;;;;;;5052184;28;20201;-88
2022/01/31 01:31:44;;;;;;;19.65;6.18;;;3.50;99.90;;;;;;5052447;28;20193;-88
2022/01/31 01:34:32;;;;;;;18.67;6.05;;;3.50;99.90;;;;;;5042976;28;20201;-88
2022/01/31 01:37:20;;;;;;;21.05;5.50;;;3.70;99.90;;;;;;5046615;28;21033;-87
2022/01/31 01:40:07;;;;;;;15.60;5.75;;;3.70;99.90;;;;;;5053566;28;20335;-88
2022/01/31 01:42:53;;;;;;;10.07;5.07;;;3.70;99.90;;;;;;5054711;28;20435;-89
2022/01/31 01:45:41;;;;;;;16.92;4.78;;;3.70;99.90;;;;;;5046538;28;20201;-89
2022/01/31 01:48:27;;;;;;;14.57;4.40;;;3.80;99.90;;;;;;5053549;28;20212;-88
2022/01/31 01:51:13;;;;;;;11.48;4.32;;;3.80;99.90;;;;;;5053964;28;20299;-88
2022/01/31 01:54:00;;;;;;;11.65;3.90;;;3.90;99.90;;;;;;5070210;22;20240;-74
2022/01/31 01:56:46;;;;;;;14.82;4.03;;;4.00;99.90;;;;;;5052964;28;20265;-76
2022/01/31 01:59:34;;;;;;;13.05;4.25;;;4.10;99.90;;;;;;5056821;28;20636;-76
2022/01/31 02:02:20;;;;;;;10.50;3.55;;;4.10;99.90;;;;;;5059861;28;20200;-76
2022/01/31 02:05:06;;;;;;;19.88;4.30;;;4.20;99.90;;;;;;5050327;28;20205;-76
2022/01/31 02:07:52;;;;;;;16.03;3.50;;;4.40;99.90;;;;;;5049538;28;20717;-76
2022/01/31 02:10:39;;;;;;;15.02;3.70;;;4.40;99.90;;;;;;5046049;28;20525;-77
2022/01/31 02:13:26;;;;;;;26.10;4.40;;;4.50;99.90;;;;;;5050819;28;20216;-76
2022/01/31 02:16:12;;;;;;;16.48;4.47;;;4.60;99.90;;;;;;5060201;28;20211;-76
2022/01/31 02:18:58;;;;;;;12.05;4.40;;;4.50;99.90;;;;;;5049872;28;20355;-76
2022/01/31 02:21:46;;;;;;;12.20;3.80;;;4.60;99.90;;;;;;5050282;28;20275;-76
2022/01/31 02:24:32;;;;;;;14.43;4.40;;;4.60;99.90;;;;;;5045811;28;20206;-76
2022/01/31 02:27:24;;;;;;;12.32;4.75;;;4.60;99.90;;;;;;5048598;28;20217;-76
2022/01/31 02:30:13;;;;;;;19.75;5.75;;;4.60;99.90;;;;;;5060915;28;20244;-76
2022/01/31 02:32:58;;;;;;;13.38;5.82;;;4.60;99.90;;;;;;5054920;28;20279;-76
2022/01/31 02:35:44;;;;;;;11.98;5.22;;;4.70;99.90;;;;;;5051834;28;20243;-76
2022/01/31 02:38:31;;;;;;;12.32;4.30;;;4.60;99.90;;;;;;5055838;28;20220;-76
2022/01/31 02:41:17;;;;;;;20.50;4.55;;;4.60;99.90;;;;;;5052295;28;20778;-76
2022/01/31 02:44:02;;;;;;;17.58;4.65;;;4.60;99.90;;;;;;5051836;28;20294;-76
2022/01/31 02:46:51;;;;;;;13.45;4.05;;;4.60;99.90;;;;;;5053681;28;20567;-76
2022/01/31 02:49:46;;;;;;;25.08;4.70;;;4.50;99.90;;;;;;5047958;28;20217;-75
2022/01/31 02:52:35;;;;;;;27.13;4.90;;;4.60;99.90;;;;;;5048803;28;20189;-76
2022/01/31 02:55:22;;;;;;;9.67;3.33;;;4.60;99.90;;;;;;5051609;28;20743;-76
2022/01/31 02:58:08;;;;;;;14.65;3.65;;;4.60;99.90;;;;;;5057241;28;20436;-75
2022/01/31 03:00:55;;;;;;;13.07;4.05;;;4.60;99.90;;;;;;5049255;28;20451;-76
2022/01/31 03:03:40;;;;;;;10.18;4.07;;;4.60;99.90;;;;;;5048469;28;20692;-76
2022/01/31 03:06:26;;;;;;;13.80;4.57;;;4.60;99.90;;;;;;5053550;28;20243;-76
2022/01/31 03:09:12;;;;;;;22.00;5.03;;;4.60;99.90;;;;;;5050044;28;20237;-75
2022/01/31 03:11:58;;;;;;;12.25;4.20;;;4.60;99.90;;;;;;5060041;28;20285;-76
2022/01/31 03:14:44;;;;;;;15.98;5.75;;;4.60;99.90;;;;;;5053823;28;20667;-76
2022/01/31 03:17:30;;;;;;;18.52;5.88;;;4.60;99.90;;;;;;5058237;28;20216;-76
2022/01/31 03:20:16;;;;;;;12.38;4.68;;;4.60;99.90;;;;;;5056340;28;20611;-76
2022/01/31 03:23:02;;;;;;;18.50;4.78;;;4.60;99.90;;;;;;5047704;28;20213;-76
2022/01/31 03:25:48;;;;;;;17.75;5.53;;;4.60;99.90;;;;;;5041370;28;20604;-76
2022/01/31 03:28:35;;;;;;;16.13;5.70;;;4.60;99.90;;;;;;5052245;28;20244;-76
2022/01/31 03:31:21;;;;;;;16.88;4.90;;;4.60;99.90;;;;;;5053588;28;20200;-75
2022/01/31 03:34:07;;;;;;;17.38;5.60;;;4.60;99.90;;;;;;5052434;28;20684;-76
2022/01/31 03:36:53;;;;;;;18.58;6.03;;;4.50;99.90;;;;;;5052248;28;20264;-76
2022/01/31 03:39:38;;;;;;;15.45;4.78;;;4.60;99.90;;;;;;5051653;28;20240;-76
2022/01/31 03:42:24;;;;;;;18.98;5.57;;;4.60;99.90;;;;;;5048514;28;20201;-76
2022/01/31 03:45:12;;;;;;;15.40;5.30;;;4.60;99.90;;;;;;5060241;28;20203;-76
2022/01/31 03:48:00;;;;;;;24.58;6.25;;;4.60;99.90;;;;;;5047026;28;20221;-76
2022/01/31 03:50:45;;;;;;;10.95;5.30;;;4.50;99.90;;;;;;5047694;28;20244;-76
2022/01/31 03:53:32;;;;;;;20.75;6.53;;;4.40;99.90;;;;;;5047274;28;20278;-75
2022/01/31 03:56:18;;;;;;;17.23;5.22;;;4.40;99.90;;;;;;5055850;28;20333;-76
2022/01/31 03:59:04;;;;;;;19.95;5.72;;;4.40;99.90;;;;;;5050921;28;20759;-76
2022/01/31 04:01:51;;;;;;;17.58;6.32;;;4.40;99.90;;;;;;5047304;28;20686;-76
2022/01/31 04:04:37;;;;;;;16.40;5.93;;;4.40;99.90;;;;;;5056262;28;20204;-76
2022/01/31 04:07:23;;;;;;;14.32;5.05;;;4.40;99.90;;;;;;5054528;28;20287;-76
2022/01/31 04:10:09;;;;;;;19.83;5.53;;;4.50;99.90;;;;;;5059910;28;20318;-76
2022/01/31 04:12:55;;;;;;;19.55;5.85;;;4.50;99.90;;;;;;5055009;28;20208;-76
2022/01/31 04:15:41;;;;;;;13.73;4.88;;;4.50;99.90;;;;;;5046841;28;20224;-76
2022/01/31 04:18:28;;;;;;;12.95;4.53;;;4.60;99.90;;;;;;5053631;28;20290;-76
2022/01/31 04:21:14;;;;;;;14.95;5.63;;;4.60;99.90;;;;;;5053015;28;20228;-76
2022/01/31 04:23:59;;;;;;;12.68;4.80;;;4.60;99.90;;;;;;5051122;28;20208;-77
2022/01/31 04:26:55;;;;;;;12.50;5.40;;;4.70;99.90;;;;;;5049612;28;20220;-77
2022/01/31 04:29:43;;;;;;;14.65;5.30;;;4.70;99.90;;;;;;5059182;28;20648;-77
2022/01/31 04:32:28;;;;;;;15.80;5.72;;;4.70;99.90;;;;;;5048414;28;20255;-76
2022/01/31 04:35:15;;;;;;;19.10;4.38;;;4.70;99.90;;;;;;5052327;28;20387;-77
2022/01/31 04:38:01;;;;;;;23.17;5.40;;;4.80;99.90;;;;;;5058744;28;20297;-77
2022/01/31 04:40:47;;;;;;;19.55;5.97;;;4.80;99.90;;;;;;5055976;28;20663;-77
2022/01/31 04:43:34;;;;;;;13.40;4.85;;;4.80;99.90;;;;;;5057130;28;20202;-77
2022/01/31 04:46:20;;;;;;;14.95;5.05;;;4.90;99.90;;;;;;5046721;28;20809;-76
2022/01/31 04:49:05;;;;;;;11.55;5.15;;;4.90;99.90;;;;;;5059137;28;20236;-77
2022/01/31 04:51:52;;;;;;;22.38;5.40;;;5.00;99.90;;;;;;5046547;28;20294;-76
2022/01/31 04:54:38;;;;;;;10.83;4.90;;;5.00;99.90;;;;;;5057198;28;20339;-77
2022/01/31 04:57:23;;;;;;;17.23;5.60;;;5.00;99.90;;;;;;5056897;28;20455;-77
2022/01/31 05:00:11;;;;;;;21.50;9.02;;;5.00;99.90;;;;;;5055933;28;20296;-77
2022/01/31 05:02:57;;;;;;;14.45;5.47;;;5.00;99.90;;;;;;5054322;28;20293;-77
2022/01/31 05:05:43;;;;;;;17.77;5.55;;;5.00;99.90;;;;;;5053227;28;20327;-77
2022/01/31 05:08:30;;;;;;;20.95;6.53;;;5.10;99.90;;;;;;5054619;28;20307;-77
2022/01/31 05:11:17;;;;;;;16.45;5.05;;;5.10;99.90;;;;;;5049434;28;20220;-77
2022/01/31 05:14:03;;;;;;;12.13;5.40;;;5.00;99.90;;;;;;5056143;28;20330;-77
2022/01/31 05:16:48;;;;;;;17.65;5.30;;;4.90;99.90;;;;;;5050513;28;20609;-74
2022/01/31 05:19:34;;;;;;;16.08;5.20;;;4.90;99.90;;;;;;5044834;28;20229;-76
2022/01/31 05:22:19;;;;;;;13.27;5.55;;;4.90;99.90;;;;;;5044935;28;20286;-77
2022/01/31 05:25:07;;;;;;;14.00;5.93;;;5.00;99.90;;;;;;5050738;28;20192;-77
2022/01/31 05:27:53;;;;;;;17.10;5.32;;;4.90;99.90;;;;;;5049469;28;20229;-77
2022/01/31 05:30:39;;;;;;;18.75;6.30;;;4.90;99.90;;;;;;5046318;28;20256;-75
2022/01/31 05:33:24;;;;;;;14.77;6.10;;;4.90;99.90;;;;;;5053374;28;20193;-77
2022/01/31 05:36:10;;;;;;;13.80;5.47;;;4.80;99.90;;;;;;5055462;28;20955;-76
2022/01/31 05:38:56;;;;;;;17.40;5.68;;;4.80;99.90;;;;;;5045864;28;20224;-77
2022/01/31 05:41:43;;;;;;;12.30;5.70;;;4.60;99.90;;;;;;5049446;28;20208;-77
2022/01/31 05:44:29;;;;;;;16.13;5.22;;;4.60;99.90;;;;;;5051887;28;20301;-77
2022/01/31 05:47:14;;;;;;;14.50;6.25;;;4.50;99.90;;;;;;5057683;28;20208;-77
2022/01/31 05:50:00;;;;;;;17.80;5.55;;;4.40;99.90;;;;;;5052408;28;20228;-77
2022/01/31 05:52:46;;;;;;;18.90;5.90;;;4.30;99.90;;;;;;5064767;28;20559;-77
2022/01/31 05:55:32;;;;;;;25.33;6.35;;;4.30;99.90;;;;;;5046349;28;20213;-77
2022/01/31 05:58:19;;;;;;;11.98;5.53;;;4.40;99.90;;;;;;5055072;28;20560;-77
2022/01/31 06:01:06;;;;;;;13.20;5.80;;;4.30;99.90;;;;;;5056667;28;20201;-77
2022/01/31 06:03:51;;;;;;;16.55;5.85;;;4.40;99.90;;;;;;5066684;28;20196;-77
2022/01/31 06:06:37;;;;;;;16.85;5.80;;;4.40;99.90;;;;;;5048394;28;20235;-75
2022/01/31 06:09:25;;;;;;;11.03;5.43;;;4.40;99.90;;;;;;5061481;28;20953;-77
2022/01/31 06:12:12;;;;;;;15.07;6.30;;;4.50;99.90;;;;;;5046858;28;20451;-77
2022/01/31 06:14:59;;;;;;;13.57;5.93;;;4.50;99.90;;;;;;5057877;28;20531;-77
2022/01/31 06:17:45;;;;;;;20.00;6.00;;;4.60;99.90;;;;;;5053315;28;20212;-77
2022/01/31 06:20:31;;;;;;;25.98;6.47;;;4.60;99.90;;;;;;5060503;28;20227;-77
2022/01/31 06:23:16;;;;;;;18.65;5.68;;;4.50;99.90;;;;;;5061784;28;20201;-77
2022/01/31 06:26:02;;;;;;;10.77;5.70;;;4.50;99.90;;;;;;5049610;28;20312;-76
2022/01/31 06:28:48;;;;;;;11.68;5.47;;;4.50;99.90;;;;;;5054572;28;20225;-77
2022/01/31 06:31:35;;;;;;;10.85;5.15;;;4.60;99.90;;;;;;5050594;28;20668;-77
2022/01/31 06:34:21;;;;;;;13.35;5.38;;;4.60;99.90;;;;;;5058144;28;20885;-77
2022/01/31 06:37:07;;;;;;;16.00;4.47;;;4.60;99.90;;;;;;5056290;28;20192;-77
2022/01/31 06:39:52;;;;;;;24.30;5.75;;;4.60;99.90;;;;;;5056055;28;20225;-77
2022/01/31 06:42:38;;;;;;;14.82;4.22;;;4.70;99.90;;;;;;5054966;28;20240;-77
2022/01/31 06:45:24;;;;;;;14.20;4.90;;;4.80;99.90;;;;;;5060933;28;20693;-77
2022/01/31 06:48:11;;;;;;;23.85;4.50;;;4.80;99.90;;;;;;5056744;28;20197;-77
2022/01/31 06:50:57;;;;;;;14.63;3.90;;;4.90;99.90;;;;;;5051740;28;20574;-76
2022/01/31 06:53:42;;;;;;;14.93;3.67;;;5.00;99.90;;;;;;5054865;28;20216;-77
2022/01/31 06:56:31;;;;;;;9.10;4.00;;;5.00;99.90;;;;;;5047915;28;20791;-77
2022/01/31 06:59:16;;;;;;;12.48;3.85;;;5.00;99.90;;;;;;5052920;28;20255;-77
2022/01/31 07:02:02;;;;;;;9.15;3.92;;;5.00;99.90;;;;;;5051734;28;20208;-77
2022/01/31 07:04:49;;;;;;;7.85;3.80;;;5.00;99.90;;;;;;5054404;28;20197;-76
2022/01/31 07:07:35;;;;;;;8.07;3.70;;;5.00;99.90;;;;;;5053826;28;20205;-77
2022/01/31 07:10:20;;;;;;;6.53;3.50;;;5.10;99.90;;;;;;5050814;28;20470;-76
2022/01/31 07:13:12;;;;;;;10.90;3.50;;;5.10;99.90;;;;;;5051773;28;20953;-75
2022/01/31 07:15:58;;;;;;;5.30;3.05;;;5.10;99.90;;;;;;5051441;28;20213;-77
2022/01/31 07:18:44;;;;;;;11.70;4.18;;;5.10;99.90;;;;;;5048335;28;20217;-76
2022/01/31 07:21:37;;;;;;;8.18;3.10;;;5.20;99.90;;;;;;5050066;28;20930;-77
2022/01/31 07:24:25;;;;;;;8.98;3.05;;;5.20;99.90;;;;;;5055934;28;20201;-76
2022/01/31 07:27:11;;;;;;;8.50;2.80;;;5.30;99.90;;;;;;5049346;28;20286;-77
2022/01/31 07:29:57;;;;;;;3.22;2.47;;;5.30;99.90;;;;;;5044473;28;20282;-76
2022/01/31 07:32:43;;;;;;;5.47;2.50;;;5.30;99.90;;;;;;5058759;28;20204;-77
2022/01/31 07:35:28;;;;;;;8.15;2.50;;;5.20;99.90;;;;;;5053311;28;20200;-77
2022/01/31 07:38:16;;;;;;;2.85;2.17;;;5.30;99.90;;;;;;5052801;28;20317;-75
2022/01/31 07:41:02;;;;;;;2.50;1.80;;;5.30;99.90;;;;;;5050483;28;20216;-77
2022/01/31 07:43:48;;;;;;;2.47;1.92;;;5.40;99.90;;;;;;5053459;28;20212;-77
2022/01/31 07:46:34;;;;;;;4.88;2.35;;;5.40;99.90;;;;;;5053109;28;20404;-77
2022/01/31 07:49:21;;;;;;;3.05;2.00;;;5.30;99.90;;;;;;5046030;28;20309;-77
2022/01/31 07:52:08;;;;;;;4.45;2.65;;;5.40;99.90;;;;;;5056897;28;20196;-77
2022/01/31 07:54:55;;;;;;;4.73;2.60;;;5.40;99.90;;;;;;5055911;28;20211;-77
2022/01/31 07:57:42;;;;;;;4.15;2.10;;;5.40;99.90;;;;;;5053807;28;20537;-77
2022/01/31 08:00:29;;;;;;;3.92;2.30;;;5.40;99.90;;;;;;5051813;28;20239;-77
2022/01/31 08:03:15;;;;;;;4.30;2.50;;;5.50;99.90;;;;;;5054114;28;20279;-77
2022/01/31 08:06:01;;;;;;;4.65;2.80;;;5.50;99.90;;;;;;5049497;28;20509;-77
2022/01/31 08:08:47;;;;;;;3.67;2.15;;;5.60;99.90;;;;;;5047857;28;20610;-77
2022/01/31 08:11:35;;;;;;;7.13;2.75;;;5.60;99.90;;;;;;5051633;28;20205;-77
2022/01/31 08:14:21;;;;;;;6.00;2.65;;;5.60;99.90;;;;;;5053834;28;20674;-77
2022/01/31 08:17:07;;;;;;;6.13;2.78;;;5.60;99.90;;;;;;5050034;28;20196;-77
2022/01/31 08:19:52;;;;;;;3.95;2.33;;;5.60;99.90;;;;;;5050567;28;20275;-77
2022/01/31 08:22:38;;;;;;;4.88;2.58;;;5.70;99.90;;;;;;5043286;28;20211;-77
2022/01/31 08:25:24;;;;;;;4.28;2.40;;;5.70;99.90;;;;;;5046045;28;20197;-77
2022/01/31 08:28:12;;;;;;;4.18;2.58;;;5.70;99.90;;;;;;5046300;28;20196;-76
2022/01/31 08:31:05;;;;;;;3.10;1.80;;;5.80;99.90;;;;;;5061113;28;20328;-76
2022/01/31 08:34:04;;;;;;;4.72;2.90;;;5.80;99.90;;;;;;5053529;28;20615;-77
2022/01/31 08:36:51;;;;;;;5.72;3.08;;;5.80;99.90;;;;;;5044272;28;20332;-75
2022/01/31 08:39:36;;;;;;;5.00;2.50;;;5.70;99.90;;;;;;5044397;28;20224;-77
2022/01/31 08:42:22;;;;;;;3.65;2.17;;;5.70;99.90;;;;;;5036212;28;20221;-76
2022/01/31 08:45:10;;;;;;;7.60;2.92;;;5.70;99.90;;;;;;5044619;28;20274;-75
2022/01/31 08:47:56;;;;;;;3.38;2.35;;;5.70;99.90;;;;;;5044823;28;20344;-75
2022/01/31 08:50:42;;;;;;;4.28;2.67;;;5.70;99.90;;;;;;5044602;28;20236;-77
2022/01/31 08:53:28;;;;;;;7.20;2.60;;;5.70;99.90;;;;;;5044848;28;20335;-75
2022/01/31 08:56:14;;;;;;;3.67;2.50;;;5.70;99.90;;;;;;5036915;28;20437;-77
2022/01/31 08:59:00;;;;;;;4.95;2.75;;;5.70;99.90;;;;;;5046775;28;20347;-76
2022/01/31 09:01:52;;;;;;;4.70;2.60;;;5.70;99.90;;;;;;5054723;28;20330;-77
2022/01/31 09:04:47;;;;;;;4.13;2.70;;;5.70;99.90;;;;;;5034424;28;20255;-77
2022/01/31 09:07:33;;;;;;;4.28;2.58;;;5.70;99.90;;;;;;5048894;28;20482;-77
2022/01/31 09:10:19;;;;;;;4.88;2.50;;;5.70;99.90;;;;;;5044951;28;20332;-77
2022/01/31 09:13:05;;;;;;;5.63;2.63;;;5.80;99.90;;;;;;5056390;28;20824;-77
2022/01/31 09:15:51;;;;;;;4.20;2.90;;;5.80;99.90;;;;;;5047115;28;20580;-77
2022/01/31 09:18:38;;;;;;;3.30;2.40;;;5.80;99.90;;;;;;5051828;28;20510;-77
2022/01/31 09:21:23;;;;;;;4.80;2.70;;;5.90;99.90;;;;;;5055206;28;20456;-76
2022/01/31 09:24:09;;;;;;;3.22;2.30;;;5.90;99.90;;;;;;5052815;28;20518;-75
2022/01/31 09:26:55;;;;;;;5.57;2.30;;;5.90;99.90;;;;;;5062699;28;20563;-77
2022/01/31 09:29:41;;;;;;;4.05;2.65;;;6.00;99.90;;;;;;5059649;28;20689;-77
2022/01/31 09:32:26;;;;;;;8.30;2.85;;;6.00;99.90;;;;;;5054838;28;20714;-77
2022/01/31 09:35:13;;;;;;;4.80;2.90;;;5.90;99.90;;;;;;5056063;28;20195;-77
2022/01/31 09:37:59;;;;;;;4.70;2.45;;;5.90;99.90;;;;;;5048573;28;20305;-77
2022/01/31 09:40:46;;;;;;;6.38;2.97;;;5.90;99.90;;;;;;5059674;28;20599;-77
2022/01/31 09:49:38;;;;;;;6.95;2.72;;;5.90;99.90;;;;;;5056478;28;20526;-77
2022/01/31 09:52:25;;;;;;;5.30;2.50;;;5.90;99.90;;;;;;5050721;28;20264;-77
2022/01/31 09:55:11;;;;;;;6.18;3.00;;;5.90;99.90;;;;;;5046527;28;20216;-77
2022/01/31 09:57:56;;;;;;;7.23;2.90;;;5.90;99.90;;;;;;5058496;28;20207;-77
2022/01/31 10:00:42;;;;;;;5.20;2.83;;;6.00;99.90;;;;;;5043156;28;21436;-77
2022/01/31 10:03:27;;;;;;;4.50;2.23;;;6.00;99.90;;;;;;5045172;28;20471;-77
2022/01/31 10:06:24;;;;;;;4.40;3.38;;;6.00;99.90;;;;;;5058540;28;20952;-77
2022/01/31 10:09:14;;;;;;;3.50;2.10;;;6.00;99.90;;;;;;5047428;28;20237;-77
2022/01/31 10:12:06;;;;;;;6.90;2.30;;;6.00;99.90;;;;;;5054156;28;20493;-78
2022/01/31 10:18:00;;;;;;;10.10;2.55;;;6.10;99.90;;;;;;5067858;28;21089;-71
2022/01/31 10:20:46;;;;;;;5.05;2.13;;;6.10;99.90;;;;;;5063416;28;20216;-71
2022/01/31 10:23:42;;;;;;;5.73;2.67;;;6.20;99.90;;;;;;5059929;28;20235;-71
2022/01/31 10:26:31;;;;;;;2.90;1.63;;;6.20;99.90;;;;;;5071249;28;20439;-71
2022/01/31 10:29:19;;;;;;;8.73;3.00;;;6.20;99.90;;;;;;5070010;28;20470;-71
2022/01/31 10:32:07;;;;;;;5.10;2.33;;;6.10;99.90;;;;;;5065077;28;20493;-71
2022/01/31 10:34:56;;;;;;;7.50;2.97;;;6.20;99.90;;;;;;5063325;28;20479;-71
2022/01/31 10:37:43;;;;;;;4.53;1.80;;;6.20;99.90;;;;;;5062792;28;20484;-71
2022/01/31 10:53:03;;;;;;;8.60;3.33;;;6.20;99.90;;;;;;4985993;28;20206;-71
2022/01/31 10:55:56;;;;;;;3.70;2.10;;;6.20;99.90;;;;;;5070908;28;20454;-71
2022/01/31 10:58:59;;;;;;;8.10;2.10;;;6.30;99.90;;;;;;5071174;28;20955;-71
2022/01/31 11:01:50;;;;;;;10.13;2.10;;;6.30;99.90;;;;;;5060635;28;20528;-71
2022/01/31 11:04:38;;;;;;;6.57;2.60;;;6.30;99.90;;;;;;5061698;28;20474;-70
2022/01/31 11:07:25;;;;;;;7.90;3.00;;;6.30;99.90;;;;;;5061720;28;20568;-70
2022/01/31 11:10:11;;;;;;;4.63;2.30;;;6.30;99.90;;;;;;5066152;28;20471;-71
2022/01/31 11:12:58;;;;;;;6.50;2.38;;;6.40;99.90;;;;;;5061767;28;20216;-71
2022/01/31 11:15:45;;;;;;;3.10;1.77;;;6.40;99.90;;;;;;5065004;28;20212;-71
2022/01/31 11:18:33;;;;;;;4.20;1.70;;;6.50;99.90;;;;;;5067761;28;20951;-71
2022/01/31 11:21:21;;;;;;;9.87;3.60;;;6.40;99.90;;;;;;5066300;28;20957;-71
2022/01/31 11:24:18;;;;;;;4.90;1.97;;;6.40;99.90;;;;;;5062388;28;20473;-71
2022/01/31 11:27:10;;;;;;;5.70;1.70;;;6.40;99.90;;;;;;5068999;28;20438;-71
2022/01/31 11:29:56;;;;;;;7.90;2.10;;;6.50;99.90;;;;;;5062662;28;20545;-70
2022/01/31 11:32:46;;;;;;;6.63;1.73;;;6.40;99.90;;;;;;5065214;28;20442;-70
2022/01/31 11:35:32;;;;;;;7.00;2.30;;;6.40;99.90;;;;;;5060561;28;20755;-71
2022/01/31 11:38:18;;;;;;;6.80;1.93;;;6.40;99.90;;;;;;5063154;28;21040;-70
2022/01/31 11:41:05;;;;;;;3.30;1.67;;;6.50;99.90;;;;;;5062477;28;20467;-70
2022/01/31 11:43:57;;;;;;;6.90;2.20;;;6.50;99.90;;;;;;5059358;28;20477;-69
2022/01/31 11:46:43;;;;;;;3.65;1.38;;;6.60;99.90;;;;;;5064193;28;20517;-69
2022/01/31 11:49:43;;;;;;;14.90;3.50;;;6.60;99.90;;;;;;5062667;28;20216;-70
2022/01/31 11:52:32;;;;;;;3.33;1.50;;;6.70;99.90;;;;;;5061716;28;20204;-69
2022/01/31 11:55:19;;;;;;;3.30;2.00;;;6.70;99.90;;;;;;5060688;28;20466;-69
2022/01/31 11:58:08;;;;;;;2.95;1.30;;;6.70;99.90;;;;;;5061502;28;20204;-70
2022/01/31 12:00:53;;;;;;;2.92;1.17;;;6.70;99.90;;;;;;5060432;28;20207;-70
2022/01/31 12:03:50;;;;;;;2.83;1.23;;;6.70;99.90;;;;;;5064736;28;20228;-69
2022/01/31 12:06:38;;;;;;;3.17;1.23;;;6.70;99.90;;;;;;5066075;28;20530;-70
2022/01/31 12:09:27;;;;;;;4.67;1.37;;;6.70;99.90;;;;;;5064015;28;20692;-70
2022/01/31 12:12:40;;;;;;;3.28;1.00;;;6.80;99.90;;;;;;5062213;28;20451;-70
2022/01/31 12:19:17;;;;;;;7.67;1.97;;;6.70;99.90;;;;;;5061143;28;20827;-70
2022/01/31 12:22:05;;;;;;;4.80;1.17;;;6.80;99.90;;;;;;5060973;28;20438;-70
2022/01/31 12:24:50;;;;;;;4.93;1.40;;;6.80;99.90;;;;;;5064871;28;20466;-70
2022/01/31 12:27:36;;;;;;;2.97;1.60;;;6.80;99.90;;;;;;5062454;28;20439;-71
2022/01/31 12:30:34;;;;;;;6.53;1.52;;;6.80;99.90;;;;;;5059402;28;20466;-71
2022/01/31 12:33:40;;;;;;;8.47;1.40;;;6.70;99.90;;;;;;5058730;28;20295;-70
2022/01/31 12:36:57;;;;;;;2.40;1.10;;;6.70;99.90;;;;;;5074255;28;20499;-70
2022/01/31 12:46:07;;;;;;;2.80;1.10;;;6.60;99.90;;;;;;5073463;28;20425;-70
2022/01/31 12:49:11;;;;;;;2.43;1.00;;;6.60;99.90;;;;;;5071571;28;20430;-71
2022/01/31 12:52:00;;;;;;;3.58;0.95;;;6.50;99.90;;;;;;5073347;28;20496;-70
2022/01/31 12:54:52;;;;;;;1.80;1.00;;;6.50;99.90;;;;;;5072170;28;20232;-71
2022/01/31 12:57:48;;;;;;;8.50;1.53;;;6.50;99.90;;;;;;5071793;28;20204;-71
2022/01/31 13:00:39;;;;;;;1.85;0.93;;;6.50;99.90;;;;;;5058419;28;20524;-71
2022/01/31 13:03:33;;;;;;;5.87;1.57;;;6.60;99.90;;;;;;5069588;28;20207;-71
2022/01/31 13:06:40;;;;;;;5.30;1.02;;;6.60;99.90;;;;;;5062106;28;20443;-70
2022/01/31 13:09:27;;;;;;;4.35;1.40;;;6.50;99.90;;;;;;5060665;28;20204;-70
2022/01/31 13:12:15;;;;;;;3.17;0.93;;;6.50;99.90;;;;;;5065072;28;20258;-70
2022/01/31 13:15:03;;;;;;;2.28;1.05;;;6.50;99.90;;;;;;5075254;28;20471;-70
2022/01/31 13:17:49;;;;;;;1.88;1.10;;;6.50;99.90;;;;;;5067663;28;20215;-70
2022/01/31 13:20:36;;;;;;;4.70;1.50;;;6.50;99.90;;;;;;5060885;28;20199;-70
2022/01/31 13:23:22;;;;;;;3.10;1.77;;;6.50;99.90;;;;;;5070657;28;21083;-70
2022/01/31 13:26:10;;;;;;;3.78;1.50;;;6.50;99.90;;;;;;5066868;28;20200;-70
2022/01/31 13:28:55;;;;;;;4.97;1.27;;;6.50;99.90;;;;;;5060877;28;20208;-71
2022/01/31 13:31:44;;;;;;;1.67;1.00;;;6.50;99.90;;;;;;5063403;28;20224;-70
2022/01/31 13:34:41;;;;;;;3.13;1.20;;;6.50;99.90;;;;;;5066986;28;20219;-71
2022/01/31 13:37:46;;;;;;;4.03;1.00;;;6.60;99.90;;;;;;5065435;28;20954;-70
2022/01/31 13:40:34;;;;;;;3.35;1.10;;;6.60;99.90;;;;;;5056371;28;20340;-70
2022/01/31 13:43:27;;;;;;;8.85;1.45;;;6.60;99.90;;;;;;5063061;28;20208;-70
2022/01/31 13:46:19;;;;;;;3.03;1.20;;;6.60;99.90;;;;;;5065365;28;20235;-70
2022/01/31 13:49:09;;;;;;;2.40;1.13;;;6.70;99.90;;;;;;5053554;28;20327;-70
2022/01/31 13:51:56;;;;;;;2.10;1.20;;;6.70;99.90;;;;;;5060636;28;20392;-70
2022/01/31 13:54:42;;;;;;;4.80;1.30;;;6.70;99.90;;;;;;5061396;28;20613;-70
2022/01/31 13:57:29;;;;;;;4.10;1.47;;;6.70;99.90;;;;;;5062849;28;20445;-70
2022/01/31 14:00:15;;;;;;;2.60;1.10;;;6.70;99.90;;;;;;5056160;28;20463;-70
2022/01/31 14:03:06;;;;;;;3.10;1.05;;;6.60;99.90;;;;;;5064893;28;20299;-70
2022/01/31 14:05:58;;;;;;;1.70;0.93;;;6.60;99.90;;;;;;5064901;28;20564;-70
2022/01/31 14:08:45;;;;;;;3.00;0.90;;;6.60;99.90;;;;;;5068395;28;21077;-70
2022/01/31 14:11:37;;;;;;;4.30;1.00;;;6.50;99.90;;;;;;5066835;28;20649;-70
2022/01/31 14:14:27;;;;;;;4.30;1.50;;;6.50;99.90;;;;;;5065299;28;20486;-71
2022/01/31 14:17:13;;;;;;;5.43;1.27;;;6.50;99.90;;;;;;5065774;28;20442;-71
2022/01/31 14:19:59;;;;;;;6.07;1.63;;;6.50;99.90;;;;;;5063965;28;20458;-70
2022/01/31 14:22:55;;;;;;;4.07;1.20;;;6.60;99.90;;;;;;5069203;28;20430;-70
2022/01/31 14:25:43;;;;;;;2.88;1.55;;;6.50;99.90;;;;;;5063629;28;20468;-70
2022/01/31 14:28:35;;;;;;;2.50;1.15;;;6.50;99.90;;;;;;5063423;28;20204;-71
2022/01/31 14:31:33;;;;;;;6.43;1.88;;;6.50;99.90;;;;;;5060257;28;20247;-70
2022/01/31 14:34:21;;;;;;;6.70;2.27;;;6.50;99.90;;;;;;5067811;28;20267;-71
2022/01/31 14:37:10;;;;;;;7.37;1.40;;;6.50;99.90;;;;;;5062653;28;20522;-71
2022/01/31 14:40:09;;;;;;;2.13;1.00;;;6.60;99.90;;;;;;5076119;28;20441;-71
2022/01/31 14:43:10;;;;;;;2.53;1.00;;;6.60;99.90;;;;;;5063139;28;20587;-70
2022/01/31 14:49:04;;;;;;;4.10;1.43;;;6.60;99.90;;;;;;5059674;28;20250;-70
2022/01/31 14:51:51;;;;;;;1.50;1.00;;;6.50;99.90;;;;;;5068839;28;20466;-71
2022/01/31 14:54:39;;;;;;;2.75;1.17;;;6.50;99.90;;;;;;5068513;28;21162;-70
2022/01/31 14:57:26;;;;;;;2.50;1.00;;;6.50;99.90;;;;;;5064959;28;20587;-71
2022/01/31 15:00:14;;;;;;;6.78;1.83;;;6.50;99.90;;;;;;5060635;28;20559;-70
2022/01/31 15:03:00;;;;;;;8.27;1.57;;;6.40;99.90;;;;;;5067886;28;20296;-72
2022/01/31 15:05:45;;;;;;;2.90;1.20;;;6.40;99.90;;;;;;5061923;28;21013;-71
2022/01/31 15:08:31;;;;;;;5.07;1.80;;;6.50;99.90;;;;;;5064709;28;20451;-71
2022/01/31 15:11:17;;;;;;;3.00;1.60;;;6.50;99.90;;;;;;5072697;28;21058;-71
2022/01/31 15:14:04;;;;;;;5.43;1.30;;;6.50;99.90;;;;;;5066082;28;20959;-71